Time;durP1;ratioP1;P1;durP2;ratioP2;P2;SDS_P1;SDS_P2;PMS_P1;PMS_P2;Temp;Humidity;BMP_temperature;BMP_pressure;BME280_temperature;BME280_humidity;BME280_pressure;Samples;Min_cycle;Max_cycle;Signal;HPM_P1;HPM_P2
2023/01/07 00:01:14;;;;;;;0.10;0.10;;;;;;;;;;7378464;19;20745;-68
2023/01/07 00:03:45;;;;;;;0.10;0.10;;;;;;;;;;7377433;19;20622;-68
2023/01/07 00:06:17;;;;;;;0.10;0.10;;;;;;;;;;7378924;19;20594;-68
2023/01/07 00:08:47;;;;;;;0.10;0.10;;;;;;;;;;7380266;19;20683;-68
2023/01/07 00:11:18;;;;;;;0.10;0.10;;;;;;;;;;7379880;19;20633;-68
2023/01/07 00:13:47;;;;;;;0.00;0.00;;;;;;;;;;7379584;19;20599;-68
2023/01/07 00:16:16;;;;;;;0.10;0.10;;;;;;;;;;7378933;19;21089;-68
2023/01/07 00:18:46;;;;;;;0.10;0.10;;;;;;;;;;7377879;19;20710;-68
2023/01/07 00:21:18;;;;;;;0.10;0.10;;;;;;;;;;7379645;19;20652;-68
2023/01/07 00:23:48;;;;;;;0.10;0.10;;;;;;;;;;7376923;19;20737;-68
2023/01/07 00:26:17;;;;;;;0.10;0.10;;;;;;;;;;7377997;19;20727;-68
2023/01/07 00:28:47;;;;;;;0.10;0.10;;;;;;;;;;7377319;19;20622;-68
2023/01/07 00:31:17;;;;;;;0.00;0.00;;;;;;;;;;7378058;19;20967;-68
2023/01/07 00:33:50;;;;;;;0.10;0.10;;;;;;;;;;7377283;19;20754;-68
2023/01/07 00:36:22;;;;;;;0.10;0.10;;;;;;;;;;7377864;19;20697;-68
2023/01/07 00:38:56;;;;;;;0.10;0.10;;;;;;;;;;7375286;19;20650;-68
2023/01/07 00:41:25;;;;;;;0.10;0.10;;;;;;;;;;7378039;19;20638;-68
2023/01/07 00:43:55;;;;;;;0.10;0.10;;;;;;;;;;7377823;19;21375;-68
2023/01/07 00:46:24;;;;;;;0.10;0.10;;;;;;;;;;7376765;19;20650;-68
2023/01/07 00:48:56;;;;;;;0.10;0.10;;;;;;;;;;7377274;19;20656;-68
2023/01/07 00:51:27;;;;;;;0.10;0.10;;;;;;;;;;7377425;19;20763;-68
2023/01/07 00:53:56;;;;;;;0.10;0.10;;;;;;;;;;7376396;19;20759;-68
2023/01/07 00:56:25;;;;;;;0.10;0.10;;;;;;;;;;7376624;19;20655;-69
2023/01/07 00:58:54;;;;;;;0.00;0.00;;;;;;;;;;7377218;19;20631;-69
2023/01/07 01:01:23;;;;;;;0.10;0.10;;;;;;;;;;7376130;19;20622;-68
2023/01/07 01:03:52;;;;;;;0.00;0.00;;;;;;;;;;7377495;19;20745;-68
2023/01/07 01:06:21;;;;;;;0.10;0.10;;;;;;;;;;7376429;19;20658;-68
2023/01/07 01:08:52;;;;;;;0.00;0.00;;;;;;;;;;7376679;19;20751;-68
2023/01/07 01:11:22;;;;;;;0.10;0.10;;;;;;;;;;7376693;19;20618;-68
2023/01/07 01:13:50;;;;;;;0.10;0.10;;;;;;;;;;7375372;19;20757;-68
2023/01/07 01:16:20;;;;;;;0.10;0.10;;;;;;;;;;7373853;19;20769;-69
2023/01/07 01:18:49;;;;;;;0.10;0.10;;;;;;;;;;7373470;19;20651;-68
2023/01/07 01:21:18;;;;;;;0.00;0.00;;;;;;;;;;7374473;19;20698;-68
2023/01/07 01:23:47;;;;;;;0.10;0.10;;;;;;;;;;7373499;19;20623;-69
2023/01/07 01:26:19;;;;;;;0.10;0.10;;;;;;;;;;7377564;19;20631;-68
2023/01/07 01:28:48;;;;;;;0.10;0.10;;;;;;;;;;7375202;19;20672;-68
2023/01/07 01:31:22;;;;;;;0.10;0.10;;;;;;;;;;7375709;19;20664;-68
2023/01/07 01:33:55;;;;;;;0.10;0.10;;;;;;;;;;7376924;19;20587;-68
2023/01/07 01:36:25;;;;;;;0.10;0.10;;;;;;;;;;7375402;19;20650;-68
2023/01/07 01:38:57;;;;;;;0.10;0.10;;;;;;;;;;7374410;19;20622;-68
2023/01/07 01:41:31;;;;;;;0.10;0.10;;;;;;;;;;7375083;19;20786;-68
2023/01/07 01:44:01;;;;;;;0.10;0.10;;;;;;;;;;7375368;19;20658;-68
2023/01/07 01:46:35;;;;;;;0.10;0.10;;;;;;;;;;7374498;19;20650;-68
2023/01/07 01:49:06;;;;;;;0.10;0.10;;;;;;;;;;7375847;19;20630;-68
2023/01/07 01:51:39;;;;;;;0.10;0.10;;;;;;;;;;7375661;19;20651;-68
2023/01/07 01:54:11;;;;;;;0.10;0.10;;;;;;;;;;7374994;19;20643;-68
2023/01/07 01:56:46;;;;;;;0.10;0.10;;;;;;;;;;7374123;19;20663;-68
2023/01/07 01:59:18;;;;;;;0.10;0.10;;;;;;;;;;7374587;19;20643;-68
2023/01/07 02:01:47;;;;;;;0.10;0.10;;;;;;;;;;7373858;19;20665;-68
2023/01/07 02:04:19;;;;;;;0.10;0.10;;;;;;;;;;7374841;19;20626;-68
2023/01/07 02:06:52;;;;;;;0.10;0.10;;;;;;;;;;7373600;19;20719;-68
2023/01/07 02:09:21;;;;;;;0.10;0.10;;;;;;;;;;7376000;19;20618;-68
2023/01/07 02:11:57;;;;;;;0.10;0.10;;;;;;;;;;7375243;19;20611;-68
2023/01/07 02:14:37;;;;;;;0.10;0.10;;;;;;;;;;7373536;19;20630;-68
2023/01/07 02:17:09;;;;;;;0.10;0.10;;;;;;;;;;7373394;19;20769;-68
2023/01/07 02:20:02;;;;;;;0.10;0.10;;;;;;;;;;7372857;19;20627;-66
2023/01/07 02:22:42;;;;;;;0.10;0.10;;;;;;;;;;7373522;19;20692;-68
2023/01/07 02:25:26;;;;;;;0.10;0.10;;;;;;;;;;7372625;19;20618;-68
2023/01/07 02:28:10;;;;;;;0.10;0.10;;;;;;;;;;7371796;19;20666;-69
2023/01/07 02:30:56;;;;;;;0.00;0.00;;;;;;;;;;7374097;19;20635;-69
2023/01/07 02:33:35;;;;;;;0.10;0.10;;;;;;;;;;7374336;19;21114;-69
2023/01/07 02:36:15;;;;;;;0.10;0.10;;;;;;;;;;7372680;19;20697;-69
2023/01/07 02:38:49;;;;;;;0.10;0.10;;;;;;;;;;7372727;19;20686;-68
2023/01/07 02:41:22;;;;;;;0.10;0.10;;;;;;;;;;7374580;19;20621;-68
2023/01/07 02:43:55;;;;;;;0.10;0.10;;;;;;;;;;7374488;19;20675;-68
2023/01/07 02:46:25;;;;;;;0.10;0.10;;;;;;;;;;7372978;19;20700;-68
2023/01/07 02:49:00;;;;;;;0.00;0.00;;;;;;;;;;7373745;19;20638;-68
2023/01/07 02:51:39;;;;;;;0.10;0.10;;;;;;;;;;7373175;19;20669;-68
2023/01/07 02:54:10;;;;;;;0.10;0.10;;;;;;;;;;7374086;19;20728;-68
2023/01/07 02:56:47;;;;;;;0.10;0.10;;;;;;;;;;7373748;19;20662;-69
2023/01/07 02:59:25;;;;;;;0.10;0.10;;;;;;;;;;7373342;19;20630;-68
2023/01/07 03:01:58;;;;;;;0.10;0.10;;;;;;;;;;7374173;19;21338;-68
2023/01/07 03:04:39;;;;;;;0.00;0.00;;;;;;;;;;7374271;19;20694;-68
2023/01/07 03:07:17;;;;;;;0.10;0.10;;;;;;;;;;7371659;19;21046;-68
2023/01/07 03:09:48;;;;;;;0.10;0.10;;;;;;;;;;7373506;19;20599;-68
2023/01/07 03:12:21;;;;;;;0.07;0.07;;;;;;;;;;7372216;19;20626;-68
2023/01/07 03:14:52;;;;;;;0.10;0.10;;;;;;;;;;7373545;19;20599;-68
2023/01/07 03:17:22;;;;;;;0.00;0.00;;;;;;;;;;7373049;19;20695;-68
2023/01/07 03:19:56;;;;;;;0.00;0.00;;;;;;;;;;7370429;19;20626;-68
2023/01/07 03:22:27;;;;;;;0.10;0.10;;;;;;;;;;7374638;19;20611;-68
2023/01/07 03:24:58;;;;;;;0.10;0.10;;;;;;;;;;7372059;19;21314;-68
2023/01/07 03:27:28;;;;;;;0.10;0.10;;;;;;;;;;7372472;19;20655;-69
2023/01/07 03:29:57;;;;;;;0.10;0.10;;;;;;;;;;7372697;19;20679;-68
2023/01/07 03:32:28;;;;;;;0.10;0.10;;;;;;;;;;7380549;19;20634;-68
2023/01/07 03:34:59;;;;;;;0.10;0.10;;;;;;;;;;7378849;19;21404;-69
2023/01/07 03:37:30;;;;;;;0.10;0.10;;;;;;;;;;7376350;19;20654;-68
2023/01/07 03:40:02;;;;;;;0.10;0.10;;;;;;;;;;7377215;19;20635;-68
2023/01/07 03:42:39;;;;;;;0.00;0.00;;;;;;;;;;7379416;19;20614;-68
2023/01/07 03:45:14;;;;;;;0.10;0.10;;;;;;;;;;7378795;19;20622;-68
2023/01/07 03:47:45;;;;;;;0.00;0.00;;;;;;;;;;7376235;19;20658;-68
2023/01/07 03:50:18;;;;;;;0.10;0.10;;;;;;;;;;7379801;19;20691;-68
2023/01/07 03:52:49;;;;;;;0.10;0.10;;;;;;;;;;7379901;19;20671;-68
2023/01/07 03:55:19;;;;;;;0.10;0.10;;;;;;;;;;7378295;19;21306;-68
2023/01/07 03:57:50;;;;;;;0.10;0.10;;;;;;;;;;7377217;19;20712;-68
2023/01/07 04:00:19;;;;;;;0.10;0.10;;;;;;;;;;7377025;19;20627;-68
2023/01/07 04:02:56;;;;;;;0.10;0.10;;;;;;;;;;7380964;19;20652;-69
2023/01/07 04:05:32;;;;;;;0.00;0.00;;;;;;;;;;7379845;19;20643;-69
2023/01/07 04:08:01;;;;;;;0.00;0.00;;;;;;;;;;7377178;19;20670;-68
2023/01/07 04:10:35;;;;;;;0.10;0.10;;;;;;;;;;7378926;19;20631;-68
2023/01/07 04:13:03;;;;;;;0.10;0.10;;;;;;;;;;7379310;19;20764;-68
2023/01/07 04:15:32;;;;;;;0.10;0.10;;;;;;;;;;7378902;19;20649;-69
2023/01/07 04:18:01;;;;;;;0.10;0.10;;;;;;;;;;7376549;19;20699;-68
2023/01/07 04:20:33;;;;;;;0.10;0.10;;;;;;;;;;7376881;19;21409;-68
2023/01/07 04:23:02;;;;;;;0.10;0.10;;;;;;;;;;7380429;19;20726;-68
2023/01/07 04:25:33;;;;;;;0.10;0.10;;;;;;;;;;7378788;19;21310;-69
2023/01/07 04:28:04;;;;;;;0.10;0.10;;;;;;;;;;7375300;19;20720;-68
2023/01/07 04:30:34;;;;;;;0.03;0.03;;;;;;;;;;7378699;19;20626;-68
2023/01/07 04:33:03;;;;;;;0.10;0.10;;;;;;;;;;7379427;19;20587;-68
2023/01/07 04:35:35;;;;;;;0.10;0.10;;;;;;;;;;7378165;19;20626;-68
2023/01/07 04:38:05;;;;;;;0.10;0.10;;;;;;;;;;7375595;19;20654;-69
2023/01/07 04:40:34;;;;;;;0.00;0.00;;;;;;;;;;7375805;19;20667;-69
2023/01/07 04:43:04;;;;;;;0.10;0.10;;;;;;;;;;7375772;19;20749;-68
2023/01/07 04:45:33;;;;;;;0.10;0.10;;;;;;;;;;7376340;19;20741;-68
2023/01/07 04:48:03;;;;;;;0.10;0.10;;;;;;;;;;7374584;19;20666;-68
2023/01/07 04:50:34;;;;;;;0.00;0.00;;;;;;;;;;7374861;19;20667;-68
2023/01/07 04:53:03;;;;;;;0.10;0.10;;;;;;;;;;7379693;19;20651;-68
2023/01/07 04:55:33;;;;;;;0.10;0.10;;;;;;;;;;7377018;19;21366;-68
2023/01/07 04:58:03;;;;;;;0.00;0.00;;;;;;;;;;7374999;19;20658;-68
2023/01/07 05:00:33;;;;;;;0.10;0.10;;;;;;;;;;7375583;19;20630;-68
2023/01/07 05:03:02;;;;;;;0.10;0.10;;;;;;;;;;7375998;19;20622;-68
2023/01/07 05:05:31;;;;;;;0.10;0.10;;;;;;;;;;7378471;19;20600;-68
2023/01/07 05:08:03;;;;;;;0.10;0.10;;;;;;;;;;7374268;19;20716;-69
2023/01/07 05:10:33;;;;;;;0.00;0.00;;;;;;;;;;7377379;19;20697;-68
2023/01/07 05:13:04;;;;;;;0.10;0.10;;;;;;;;;;7375669;19;20701;-69
2023/01/07 05:15:33;;;;;;;0.00;0.00;;;;;;;;;;7377113;19;20665;-68
2023/01/07 05:18:02;;;;;;;0.10;0.10;;;;;;;;;;7373450;19;20675;-69
2023/01/07 05:20:33;;;;;;;0.10;0.10;;;;;;;;;;7374683;19;20635;-68
2023/01/07 05:23:04;;;;;;;0.10;0.10;;;;;;;;;;7375790;19;20627;-68
2023/01/07 05:25:34;;;;;;;0.00;0.00;;;;;;;;;;7377070;19;20685;-69
2023/01/07 05:28:03;;;;;;;0.10;0.10;;;;;;;;;;7373912;19;20693;-68
2023/01/07 05:30:34;;;;;;;0.10;0.10;;;;;;;;;;7376470;19;20673;-68
2023/01/07 05:33:06;;;;;;;0.10;0.10;;;;;;;;;;7377036;19;20622;-68
2023/01/07 05:35:35;;;;;;;0.10;0.10;;;;;;;;;;7376042;19;20622;-68
2023/01/07 05:38:07;;;;;;;0.10;0.10;;;;;;;;;;7374388;19;20674;-69
2023/01/07 05:40:36;;;;;;;0.10;0.10;;;;;;;;;;7374978;19;20756;-68
2023/01/07 05:43:06;;;;;;;0.00;0.00;;;;;;;;;;7379200;19;20713;-67
2023/01/07 05:45:35;;;;;;;0.10;0.10;;;;;;;;;;7375025;19;20677;-67
2023/01/07 05:48:04;;;;;;;0.10;0.10;;;;;;;;;;7376131;19;20662;-67
2023/01/07 05:50:32;;;;;;;0.10;0.10;;;;;;;;;;7377947;19;20611;-67
2023/01/07 05:53:02;;;;;;;0.10;0.10;;;;;;;;;;7377136;19;20721;-67
2023/01/07 05:55:33;;;;;;;0.10;0.10;;;;;;;;;;7373525;19;20606;-67
2023/01/07 05:58:02;;;;;;;0.10;0.10;;;;;;;;;;7374185;19;20716;-67
2023/01/07 06:00:31;;;;;;;0.10;0.10;;;;;;;;;;7376461;19;20750;-67
2023/01/07 06:03:00;;;;;;;0.10;0.10;;;;;;;;;;7375081;19;20642;-67
2023/01/07 06:05:29;;;;;;;0.10;0.10;;;;;;;;;;7376466;19;20595;-67
2023/01/07 06:07:58;;;;;;;0.10;0.10;;;;;;;;;;7372357;19;20662;-68
2023/01/07 06:10:27;;;;;;;0.00;0.00;;;;;;;;;;7375505;19;20671;-67
2023/01/07 06:12:58;;;;;;;0.00;0.00;;;;;;;;;;7376275;19;20595;-67
2023/01/07 06:15:27;;;;;;;0.10;0.10;;;;;;;;;;7374991;19;20714;-68
2023/01/07 06:17:56;;;;;;;0.10;0.10;;;;;;;;;;7374629;19;20667;-68
2023/01/07 06:20:25;;;;;;;0.10;0.10;;;;;;;;;;7372373;19;20658;-67
2023/01/07 06:22:54;;;;;;;0.10;0.10;;;;;;;;;;7375908;19;20611;-67
2023/01/07 06:25:23;;;;;;;0.10;0.10;;;;;;;;;;7374819;19;20599;-67
2023/01/07 06:27:52;;;;;;;0.10;0.10;;;;;;;;;;7374322;19;20627;-67
2023/01/07 06:30:23;;;;;;;0.10;0.10;;;;;;;;;;7373133;19;20623;-67
2023/01/07 06:32:52;;;;;;;0.10;0.10;;;;;;;;;;7375249;19;20712;-67
2023/01/07 06:35:21;;;;;;;0.10;0.10;;;;;;;;;;7373985;19;20607;-67
2023/01/07 06:37:50;;;;;;;0.10;0.10;;;;;;;;;;7374448;19;20697;-67
2023/01/07 06:40:18;;;;;;;0.10;0.10;;;;;;;;;;7372441;19;20631;-67
2023/01/07 06:42:47;;;;;;;0.10;0.10;;;;;;;;;;7375066;19;20647;-68
2023/01/07 06:45:17;;;;;;;0.10;0.10;;;;;;;;;;7375059;19;20611;-69
2023/01/07 06:47:49;;;;;;;0.10;0.10;;;;;;;;;;7372880;19;20702;-67
2023/01/07 06:50:18;;;;;;;0.10;0.10;;;;;;;;;;7374798;19;20591;-67
2023/01/07 06:52:47;;;;;;;0.10;0.10;;;;;;;;;;7372588;19;20638;-67
2023/01/07 06:55:15;;;;;;;0.10;0.10;;;;;;;;;;7375203;19;20604;-67
2023/01/07 06:57:44;;;;;;;0.10;0.10;;;;;;;;;;7373456;19;20630;-67
2023/01/07 07:00:14;;;;;;;0.10;0.10;;;;;;;;;;7373350;19;20627;-67
2023/01/07 07:02:43;;;;;;;0.10;0.10;;;;;;;;;;7373696;19;20611;-67
2023/01/07 07:05:15;;;;;;;0.10;0.10;;;;;;;;;;7375272;19;20603;-67
2023/01/07 07:07:44;;;;;;;0.00;0.00;;;;;;;;;;7380130;19;20627;-67
2023/01/07 07:10:13;;;;;;;0.10;0.10;;;;;;;;;;7382051;19;20678;-67
2023/01/07 07:12:42;;;;;;;0.10;0.10;;;;;;;;;;7382173;19;20603;-67
2023/01/07 07:15:11;;;;;;;0.10;0.10;;;;;;;;;;7381776;19;21068;-67
2023/01/07 07:17:40;;;;;;;0.10;0.10;;;;;;;;;;7379193;19;20689;-67
2023/01/07 07:20:10;;;;;;;0.10;0.10;;;;;;;;;;7378912;19;20726;-67
2023/01/07 07:22:46;;;;;;;0.10;0.10;;;;;;;;;;7383476;19;20591;-67
2023/01/07 07:25:15;;;;;;;0.10;0.10;;;;;;;;;;7380796;19;20634;-68
2023/01/07 07:27:46;;;;;;;0.10;0.10;;;;;;;;;;7377092;19;20671;-67
2023/01/07 07:30:16;;;;;;;0.03;0.03;;;;;;;;;;7379627;19;20634;-67
2023/01/07 07:32:45;;;;;;;0.10;0.10;;;;;;;;;;7382071;19;20607;-67
2023/01/07 07:35:14;;;;;;;0.10;0.10;;;;;;;;;;7378942;19;20649;-67
2023/01/07 07:37:46;;;;;;;0.10;0.10;;;;;;;;;;7378049;19;20610;-67
2023/01/07 07:40:15;;;;;;;0.10;0.10;;;;;;;;;;7378881;19;20665;-67
2023/01/07 07:42:44;;;;;;;0.00;0.00;;;;;;;;;;7381241;19;20713;-67
2023/01/07 07:45:14;;;;;;;0.10;0.10;;;;;;;;;;7379300;19;20706;-67
2023/01/07 07:47:43;;;;;;;0.10;0.10;;;;;;;;;;7377559;19;20603;-67
2023/01/07 07:50:12;;;;;;;0.00;0.00;;;;;;;;;;7378519;19;20631;-67
2023/01/07 07:52:41;;;;;;;0.10;0.10;;;;;;;;;;7376759;19;20656;-67
2023/01/07 07:55:13;;;;;;;0.10;0.10;;;;;;;;;;7378275;19;20603;-68
2023/01/07 07:57:42;;;;;;;0.00;0.00;;;;;;;;;;7376655;19;20667;-66
2023/01/07 08:00:12;;;;;;;0.07;0.07;;;;;;;;;;7378055;19;20690;-67
2023/01/07 08:02:43;;;;;;;0.10;0.10;;;;;;;;;;7378369;19;20623;-67
2023/01/07 08:05:12;;;;;;;0.10;0.10;;;;;;;;;;7376891;19;20648;-67
2023/01/07 08:07:41;;;;;;;0.10;0.10;;;;;;;;;;7374566;19;21287;-67
2023/01/07 08:10:13;;;;;;;0.10;0.10;;;;;;;;;;7376479;19;20738;-67
2023/01/07 08:12:42;;;;;;;0.10;0.10;;;;;;;;;;7377454;19;20709;-67
2023/01/07 08:15:11;;;;;;;0.03;0.03;;;;;;;;;;7378980;19;20634;-66
2023/01/07 08:17:40;;;;;;;0.10;0.10;;;;;;;;;;7374637;19;20708;-66
2023/01/07 08:20:10;;;;;;;0.10;0.10;;;;;;;;;;7378185;19;20667;-66
2023/01/07 08:22:40;;;;;;;0.10;0.10;;;;;;;;;;7379699;19;20705;-66
2023/01/07 08:25:09;;;;;;;0.10;0.10;;;;;;;;;;7377663;19;20644;-66
2023/01/07 08:27:41;;;;;;;0.10;0.10;;;;;;;;;;7377211;19;20676;-66
2023/01/07 08:30:10;;;;;;;0.10;0.10;;;;;;;;;;7379324;19;20595;-65
2023/01/07 08:32:39;;;;;;;0.00;0.00;;;;;;;;;;7378020;19;20651;-66
2023/01/07 08:35:09;;;;;;;0.00;0.00;;;;;;;;;;7379430;19;20607;-66
2023/01/07 08:37:38;;;;;;;0.00;0.00;;;;;;;;;;7375958;19;20749;-66
2023/01/07 08:40:07;;;;;;;0.00;0.00;;;;;;;;;;7377493;19;20634;-66
2023/01/07 08:42:36;;;;;;;0.10;0.10;;;;;;;;;;7378253;19;20603;-66
2023/01/07 08:45:09;;;;;;;0.10;0.10;;;;;;;;;;7375906;19;20773;-66
2023/01/07 08:47:38;;;;;;;0.10;0.10;;;;;;;;;;7377990;19;20806;-66
2023/01/07 08:50:07;;;;;;;0.10;0.10;;;;;;;;;;7378902;19;20611;-66
2023/01/07 08:52:36;;;;;;;0.10;0.10;;;;;;;;;;7378774;19;20599;-68
2023/01/07 08:55:04;;;;;;;0.10;0.10;;;;;;;;;;7376221;19;20750;-66
2023/01/07 08:57:33;;;;;;;0.00;0.00;;;;;;;;;;7377535;19;20653;-66
2023/01/07 09:00:02;;;;;;;0.10;0.10;;;;;;;;;;7379575;19;20595;-67
2023/01/07 09:02:34;;;;;;;0.10;0.10;;;;;;;;;;7375662;19;20623;-66
2023/01/07 09:05:04;;;;;;;0.00;0.00;;;;;;;;;;7378424;19;20626;-67
2023/01/07 09:07:33;;;;;;;0.10;0.10;;;;;;;;;;7375991;19;20623;-67
2023/01/07 09:10:02;;;;;;;0.10;0.10;;;;;;;;;;7377508;19;20709;-67
2023/01/07 09:12:31;;;;;;;0.10;0.10;;;;;;;;;;7376729;19;21271;-66
2023/01/07 09:15:00;;;;;;;0.10;0.10;;;;;;;;;;7378308;19;20725;-66
2023/01/07 09:17:29;;;;;;;0.10;0.10;;;;;;;;;;7376628;19;20746;-66
2023/01/07 09:20:02;;;;;;;0.10;0.10;;;;;;;;;;7377603;19;20638;-66
2023/01/07 09:22:31;;;;;;;0.10;0.10;;;;;;;;;;7376336;19;20623;-66
2023/01/07 09:25:00;;;;;;;0.10;0.10;;;;;;;;;;7378030;19;20726;-66
2023/01/07 09:27:29;;;;;;;0.10;0.10;;;;;;;;;;7375302;19;20711;-66
2023/01/07 09:29:58;;;;;;;0.10;0.10;;;;;;;;;;7377304;19;21332;-66
2023/01/07 09:32:27;;;;;;;0.10;0.10;;;;;;;;;;7376884;19;20623;-66
2023/01/07 09:34:56;;;;;;;0.10;0.10;;;;;;;;;;7376973;19;20694;-66
2023/01/07 09:37:27;;;;;;;0.00;0.00;;;;;;;;;;7374901;19;20702;-67
2023/01/07 09:39:59;;;;;;;0.10;0.10;;;;;;;;;;7376208;19;20683;-66
2023/01/07 09:42:31;;;;;;;0.10;0.10;;;;;;;;;;7373135;19;20631;-66
2023/01/07 09:45:06;;;;;;;0.10;0.10;;;;;;;;;;7375735;19;20748;-66
2023/01/07 09:47:37;;;;;;;0.10;0.10;;;;;;;;;;7376289;19;20623;-66
2023/01/07 09:50:08;;;;;;;0.10;0.10;;;;;;;;;;7376813;19;20687;-66
2023/01/07 09:52:43;;;;;;;0.10;0.10;;;;;;;;;;7376106;19;20677;-65
2023/01/07 09:55:18;;;;;;;0.10;0.10;;;;;;;;;;7374771;19;20728;-66
2023/01/07 09:57:47;;;;;;;0.10;0.10;;;;;;;;;;7375366;19;20634;-66
2023/01/07 10:00:18;;;;;;;0.10;0.10;;;;;;;;;;7373564;19;20645;-66
2023/01/07 10:02:53;;;;;;;0.00;0.00;;;;;;;;;;7374756;19;20619;-66
2023/01/07 10:05:31;;;;;;;0.10;0.10;;;;;;;;;;7374290;19;20749;-66
2023/01/07 10:08:06;;;;;;;0.10;0.10;;;;;;;;;;7374483;19;20667;-66
2023/01/07 10:10:39;;;;;;;0.00;0.00;;;;;;;;;;7376751;19;20713;-66
2023/01/07 10:13:15;;;;;;;0.10;0.10;;;;;;;;;;7375963;19;20611;-67
2023/01/07 10:15:53;;;;;;;0.00;0.00;;;;;;;;;;7376372;19;20611;-66
2023/01/07 10:18:31;;;;;;;0.10;0.10;;;;;;;;;;7372118;19;20713;-66
2023/01/07 10:21:05;;;;;;;0.10;0.10;;;;;;;;;;7374172;19;20693;-65
2023/01/07 10:23:39;;;;;;;0.10;0.10;;;;;;;;;;7373389;19;20619;-66
2023/01/07 10:26:12;;;;;;;0.10;0.10;;;;;;;;;;7374436;19;20656;-67
2023/01/07 10:28:43;;;;;;;0.10;0.10;;;;;;;;;;7374490;19;20749;-67
2023/01/07 10:31:21;;;;;;;0.10;0.10;;;;;;;;;;7373915;19;21298;-67
2023/01/07 10:33:51;;;;;;;0.00;0.00;;;;;;;;;;7373436;19;20686;-67
2023/01/07 10:36:23;;;;;;;0.00;0.00;;;;;;;;;;7375028;19;20655;-67
2023/01/07 10:39:00;;;;;;;0.10;0.10;;;;;;;;;;7376141;19;20622;-68
2023/01/07 10:41:31;;;;;;;0.03;0.03;;;;;;;;;;7372945;19;20619;-68
2023/01/07 10:44:06;;;;;;;0.00;0.00;;;;;;;;;;7373742;19;20651;-68
2023/01/07 10:46:43;;;;;;;0.10;0.10;;;;;;;;;;7374451;19;20687;-67
2023/01/07 10:49:27;;;;;;;0.00;0.00;;;;;;;;;;7373280;19;20687;-68
2023/01/07 10:52:14;;;;;;;0.10;0.10;;;;;;;;;;7375022;19;20733;-68
2023/01/07 10:55:03;;;;;;;0.10;0.10;;;;;;;;;;7372910;19;20721;-67
2023/01/07 10:57:37;;;;;;;0.10;0.10;;;;;;;;;;7370827;19;20691;-68
2023/01/07 11:00:08;;;;;;;0.07;0.07;;;;;;;;;;7375676;19;20136;-68
2023/01/07 11:02:45;;;;;;;0.10;0.10;;;;;;;;;;7373148;19;20152;-69
2023/01/07 11:05:17;;;;;;;0.10;0.10;;;;;;;;;;7373435;19;20167;-70
2023/01/07 11:07:48;;;;;;;0.10;0.10;;;;;;;;;;7372018;19;20183;-68
2023/01/07 11:10:19;;;;;;;0.00;0.00;;;;;;;;;;7374634;19;20157;-69
2023/01/07 11:12:52;;;;;;;0.10;0.10;;;;;;;;;;7372611;19;20149;-69
2023/01/07 11:15:24;;;;;;;0.03;0.03;;;;;;;;;;7372566;19;20623;-68
2023/01/07 11:17:55;;;;;;;0.00;0.00;;;;;;;;;;7372158;19;20170;-68
2023/01/07 11:20:39;;;;;;;0.10;0.10;;;;;;;;;;7373648;19;20208;-68
2023/01/07 11:23:19;;;;;;;0.03;0.03;;;;;;;;;;7370106;19;20156;-68
2023/01/07 11:25:49;;;;;;;0.00;0.00;;;;;;;;;;7371834;19;20223;-69
2023/01/07 11:28:23;;;;;;;0.00;0.00;;;;;;;;;;7373135;19;20163;-68
2023/01/07 11:30:58;;;;;;;0.00;0.00;;;;;;;;;;7371532;19;20161;-68
2023/01/07 11:33:29;;;;;;;0.10;0.10;;;;;;;;;;7372244;19;20192;-67
2023/01/07 11:35:59;;;;;;;0.00;0.00;;;;;;;;;;7373035;19;20156;-69
2023/01/07 11:38:29;;;;;;;0.00;0.00;;;;;;;;;;7373181;19;20236;-69
2023/01/07 11:41:00;;;;;;;0.00;0.00;;;;;;;;;;7373415;19;20165;-68
2023/01/07 11:43:36;;;;;;;0.00;0.00;;;;;;;;;;7370933;19;20178;-67
2023/01/07 11:46:06;;;;;;;0.00;0.00;;;;;;;;;;7373879;19;20149;-67
2023/01/07 11:48:36;;;;;;;0.00;0.00;;;;;;;;;;7374291;19;20200;-67
2023/01/07 11:51:07;;;;;;;0.00;0.00;;;;;;;;;;7371149;19;20149;-67
2023/01/07 11:53:38;;;;;;;0.00;0.00;;;;;;;;;;7380033;19;20204;-69
2023/01/07 11:56:08;;;;;;;0.00;0.00;;;;;;;;;;7381952;19;20183;-67
2023/01/07 11:58:40;;;;;;;0.10;0.10;;;;;;;;;;7379803;19;20157;-67
2023/01/07 12:01:17;;;;;;;0.00;0.00;;;;;;;;;;7379520;19;20534;-67
2023/01/07 12:03:47;;;;;;;0.00;0.00;;;;;;;;;;7378491;19;20182;-68
2023/01/07 12:06:20;;;;;;;0.00;0.00;;;;;;;;;;7378384;19;20529;-67
2023/01/07 12:08:53;;;;;;;0.00;0.00;;;;;;;;;;7378373;19;20188;-68
2023/01/07 12:11:23;;;;;;;0.00;0.00;;;;;;;;;;7379757;19;20153;-66
2023/01/07 12:13:56;;;;;;;0.00;0.00;;;;;;;;;;7378065;19;20603;-67
2023/01/07 12:16:29;;;;;;;0.00;0.00;;;;;;;;;;7378663;19;20206;-67
2023/01/07 12:19:07;;;;;;;0.00;0.00;;;;;;;;;;7378479;19;20153;-67
2023/01/07 12:21:37;;;;;;;0.00;0.00;;;;;;;;;;7376864;19;20675;-67
2023/01/07 12:24:21;;;;;;;0.00;0.00;;;;;;;;;;7377619;19;20157;-68
2023/01/07 12:26:54;;;;;;;0.00;0.00;;;;;;;;;;7378018;19;20197;-68
2023/01/07 12:29:35;;;;;;;0.00;0.00;;;;;;;;;;7379645;19;20678;-68
2023/01/07 12:32:10;;;;;;;0.00;0.00;;;;;;;;;;7378873;19;20137;-68
2023/01/07 12:34:49;;;;;;;0.00;0.00;;;;;;;;;;7377123;19;20231;-68
2023/01/07 12:37:25;;;;;;;0.00;0.00;;;;;;;;;;7375145;19;20639;-67
2023/01/07 12:39:58;;;;;;;0.00;0.00;;;;;;;;;;7377716;19;20148;-68
2023/01/07 12:42:29;;;;;;;0.00;0.00;;;;;;;;;;7374919;19;20178;-69
2023/01/07 12:45:03;;;;;;;0.00;0.00;;;;;;;;;;7378687;19;20141;-70
2023/01/07 12:47:36;;;;;;;0.00;0.00;;;;;;;;;;7377351;19;20157;-67
2023/01/07 12:50:07;;;;;;;0.00;0.00;;;;;;;;;;7378479;19;20222;-68
2023/01/07 12:52:41;;;;;;;0.00;0.00;;;;;;;;;;7376093;19;20152;-68
2023/01/07 12:55:15;;;;;;;0.00;0.00;;;;;;;;;;7376707;19;20136;-68
2023/01/07 12:57:46;;;;;;;0.00;0.00;;;;;;;;;;7375884;19;20164;-68
2023/01/07 13:00:21;;;;;;;0.00;0.00;;;;;;;;;;7378390;19;20133;-69
2023/01/07 13:02:53;;;;;;;0.10;0.10;;;;;;;;;;7374106;19;20220;-68
2023/01/07 13:05:25;;;;;;;0.10;0.10;;;;;;;;;;7376096;19;20200;-68
2023/01/07 13:07:55;;;;;;;0.00;0.00;;;;;;;;;;7374994;19;20211;-70
2023/01/07 13:10:26;;;;;;;0.00;0.00;;;;;;;;;;7377596;19;20152;-69
2023/01/07 13:12:58;;;;;;;0.00;0.00;;;;;;;;;;7378542;19;20147;-68
2023/01/07 13:15:32;;;;;;;0.00;0.00;;;;;;;;;;7377366;19;20232;-68
2023/01/07 13:18:05;;;;;;;0.00;0.00;;;;;;;;;;7376920;19;20183;-69
2023/01/07 13:20:41;;;;;;;0.00;0.00;;;;;;;;;;7375987;19;20223;-68
2023/01/07 13:23:17;;;;;;;0.00;0.00;;;;;;;;;;7377900;19;20132;-69
2023/01/07 13:25:55;;;;;;;0.00;0.00;;;;;;;;;;7376609;19;20172;-68
2023/01/07 13:28:30;;;;;;;0.10;0.10;;;;;;;;;;7378085;19;20149;-68
2023/01/07 13:31:12;;;;;;;0.00;0.00;;;;;;;;;;7375378;19;20177;-68
2023/01/07 13:33:44;;;;;;;0.00;0.00;;;;;;;;;;7375808;19;20196;-68
2023/01/07 13:36:17;;;;;;;0.10;0.10;;;;;;;;;;7375483;19;20228;-69
2023/01/07 13:39:01;;;;;;;0.00;0.00;;;;;;;;;;7377953;19;20136;-68
2023/01/07 13:41:38;;;;;;;0.00;0.00;;;;;;;;;;7377883;19;20157;-68
2023/01/07 13:44:21;;;;;;;0.00;0.00;;;;;;;;;;7375646;19;20129;-69
2023/01/07 13:46:53;;;;;;;0.00;0.00;;;;;;;;;;7375452;19;20243;-68
2023/01/07 13:49:28;;;;;;;0.00;0.00;;;;;;;;;;7375748;19;20153;-67
2023/01/07 13:51:58;;;;;;;0.00;0.00;;;;;;;;;;7375598;19;20160;-67
2023/01/07 13:54:50;;;;;;;0.00;0.00;;;;;;;;;;7376380;19;20208;-67
2023/01/07 13:57:34;;;;;;;0.00;0.00;;;;;;;;;;7373228;19;20183;-67
2023/01/07 14:00:04;;;;;;;0.00;0.00;;;;;;;;;;7375807;19;20136;-68
2023/01/07 14:02:56;;;;;;;0.00;0.00;;;;;;;;;;7375588;19;20129;-68
2023/01/07 14:05:29;;;;;;;0.00;0.00;;;;;;;;;;7374899;19;20129;-67
2023/01/07 14:08:00;;;;;;;0.00;0.00;;;;;;;;;;7372570;19;20177;-68
2023/01/07 14:10:31;;;;;;;0.00;0.00;;;;;;;;;;7373362;19;20156;-67
2023/01/07 14:13:11;;;;;;;0.00;0.00;;;;;;;;;;7374576;19;20166;-68
2023/01/07 14:15:45;;;;;;;0.00;0.00;;;;;;;;;;7372185;19;20156;-67
2023/01/07 14:18:31;;;;;;;0.00;0.00;;;;;;;;;;7372715;19;20188;-68
2023/01/07 14:21:09;;;;;;;0.00;0.00;;;;;;;;;;7371992;19;20197;-68
2023/01/07 14:23:41;;;;;;;0.00;0.00;;;;;;;;;;7371141;19;20153;-68
2023/01/07 14:26:17;;;;;;;0.00;0.00;;;;;;;;;;7372231;19;20148;-68
2023/01/07 14:29:10;;;;;;;0.00;0.00;;;;;;;;;;7373590;19;20156;-68
2023/01/07 14:31:39;;;;;;;0.00;0.00;;;;;;;;;;7371539;19;20152;-68
2023/01/07 14:34:10;;;;;;;0.00;0.00;;;;;;;;;;7373809;19;20144;-68
2023/01/07 14:36:54;;;;;;;0.00;0.00;;;;;;;;;;7373332;19;20184;-68
2023/01/07 14:39:36;;;;;;;0.00;0.00;;;;;;;;;;7372487;19;20157;-68
2023/01/07 14:42:20;;;;;;;0.00;0.00;;;;;;;;;;7372840;19;20583;-69
2023/01/07 14:44:50;;;;;;;0.00;0.00;;;;;;;;;;7372714;19;20148;-68
2023/01/07 14:47:48;;;;;;;0.00;0.00;;;;;;;;;;7372853;19;20215;-68
2023/01/07 14:50:25;;;;;;;0.10;0.10;;;;;;;;;;7372895;19;20149;-68
2023/01/07 14:53:16;;;;;;;0.00;0.00;;;;;;;;;;7372548;19;20148;-68
2023/01/07 14:56:00;;;;;;;0.00;0.00;;;;;;;;;;7372610;19;20177;-68
2023/01/07 14:58:48;;;;;;;0.00;0.00;;;;;;;;;;7372782;19;20160;-68
2023/01/07 15:01:35;;;;;;;0.00;0.00;;;;;;;;;;7373360;19;20160;-69
2023/01/07 15:04:13;;;;;;;0.00;0.00;;;;;;;;;;7371134;19;20149;-68
2023/01/07 15:06:45;;;;;;;0.00;0.00;;;;;;;;;;7372553;19;20182;-68
2023/01/07 15:17:24;;;;;;;0.00;0.00;;;;;;;;;;7372020;19;20153;-69
2023/01/07 15:19:53;;;;;;;0.00;0.00;;;;;;;;;;7375290;19;20212;-69
2023/01/07 15:22:47;;;;;;;0.00;0.00;;;;;;;;;;7372170;19;20159;-68